sensor_id;sensor_type;location;lat;lon;timestamp;P1;durP1;ratioP1;P2;durP2;ratioP2
7432;SDS011;32233;49.500;7.764;2023-12-20T00:01:45;5.57;;;4.43;;
7432;SDS011;32233;49.500;7.764;2023-12-20T00:04:12;6.47;;;4.57;;
7432;SDS011;32233;49.500;7.764;2023-12-20T00:06:38;6.67;;;4.70;;
7432;SDS011;32233;49.500;7.764;2023-12-20T00:09:05;4.60;;;4.07;;
7432;SDS011;32233;49.500;7.764;2023-12-20T00:11:32;6.67;;;4.53;;
7432;SDS011;32233;49.500;7.764;2023-12-20T00:13:58;7.20;;;4.47;;
7432;SDS011;32233;49.500;7.764;2023-12-20T00:16:25;7.30;;;5.20;;
7432;SDS011;32233;49.500;7.764;2023-12-20T00:18:52;7.27;;;5.17;;
7432;SDS011;32233;49.500;7.764;2023-12-20T00:21:18;6.97;;;5.10;;
7432;SDS011;32233;49.500;7.764;2023-12-20T00:23:45;5.83;;;4.63;;
7432;SDS011;32233;49.500;7.764;2023-12-20T00:26:11;7.03;;;4.93;;
7432;SDS011;32233;49.500;7.764;2023-12-20T00:28:38;6.70;;;4.80;;
7432;SDS011;32233;49.500;7.764;2023-12-20T00:31:05;7.13;;;5.17;;
7432;SDS011;32233;49.500;7.764;2023-12-20T00:33:32;7.83;;;4.90;;
7432;SDS011;32233;49.500;7.764;2023-12-20T00:35:58;7.40;;;5.50;;
7432;SDS011;32233;49.500;7.764;2023-12-20T00:38:25;5.83;;;4.67;;
7432;SDS011;32233;49.500;7.764;2023-12-20T00:40:52;6.83;;;4.60;;
7432;SDS011;32233;49.500;7.764;2023-12-20T00:43:18;8.03;;;4.50;;
7432;SDS011;32233;49.500;7.764;2023-12-20T00:45:45;7.30;;;5.10;;
7432;SDS011;32233;49.500;7.764;2023-12-20T00:48:12;7.07;;;4.87;;
7432;SDS011;32233;49.500;7.764;2023-12-20T00:50:38;5.63;;;4.47;;
7432;SDS011;32233;49.500;7.764;2023-12-20T00:53:05;6.27;;;4.83;;
7432;SDS011;32233;49.500;7.764;2023-12-20T00:55:32;7.23;;;4.97;;
7432;SDS011;32233;49.500;7.764;2023-12-20T00:57:58;6.20;;;4.67;;
7432;SDS011;32233;49.500;7.764;2023-12-20T01:00:26;5.70;;;4.23;;
7432;SDS011;32233;49.500;7.764;2023-12-20T01:02:53;7.73;;;4.77;;
7432;SDS011;32233;49.500;7.764;2023-12-20T01:05:20;5.63;;;4.67;;
7432;SDS011;32233;49.500;7.764;2023-12-20T01:07:49;5.70;;;4.03;;
7432;SDS011;32233;49.500;7.764;2023-12-20T01:10:16;6.10;;;3.80;;
7432;SDS011;32233;49.500;7.764;2023-12-20T01:12:43;5.40;;;3.97;;
7432;SDS011;32233;49.500;7.764;2023-12-20T01:15:10;5.30;;;3.90;;
7432;SDS011;32233;49.500;7.764;2023-12-20T01:17:36;5.20;;;4.00;;
7432;SDS011;32233;49.500;7.764;2023-12-20T01:20:03;4.43;;;3.90;;
7432;SDS011;32233;49.500;7.764;2023-12-20T01:22:30;6.17;;;3.90;;
7432;SDS011;32233;49.500;7.764;2023-12-20T01:24:57;4.70;;;4.13;;
7432;SDS011;32233;49.500;7.764;2023-12-20T01:27:23;4.80;;;3.93;;
7432;SDS011;32233;49.500;7.764;2023-12-20T01:29:50;6.17;;;3.93;;
7432;SDS011;32233;49.500;7.764;2023-12-20T01:32:16;5.77;;;4.33;;
7432;SDS011;32233;49.500;7.764;2023-12-20T01:34:43;4.83;;;4.00;;
7432;SDS011;32233;49.500;7.764;2023-12-20T01:37:10;5.30;;;3.87;;
7432;SDS011;32233;49.500;7.764;2023-12-20T01:39:36;5.00;;;4.10;;
7432;SDS011;32233;49.500;7.764;2023-12-20T01:42:03;5.80;;;4.53;;
7432;SDS011;32233;49.500;7.764;2023-12-20T01:44:30;5.20;;;3.87;;
7432;SDS011;32233;49.500;7.764;2023-12-20T01:46:57;4.07;;;3.60;;
7432;SDS011;32233;49.500;7.764;2023-12-20T01:49:23;5.70;;;3.50;;
7432;SDS011;32233;49.500;7.764;2023-12-20T01:51:51;4.77;;;3.70;;
7432;SDS011;32233;49.500;7.764;2023-12-20T01:54:18;4.67;;;3.37;;
7432;SDS011;32233;49.500;7.764;2023-12-20T01:56:46;4.23;;;3.63;;
7432;SDS011;32233;49.500;7.764;2023-12-20T01:59:15;3.97;;;3.40;;
7432;SDS011;32233;49.500;7.764;2023-12-20T02:01:41;5.70;;;4.13;;
7432;SDS011;32233;49.500;7.764;2023-12-20T02:04:08;4.80;;;3.70;;
7432;SDS011;32233;49.500;7.764;2023-12-20T02:06:35;6.53;;;4.20;;
7432;SDS011;32233;49.500;7.764;2023-12-20T02:09:02;6.17;;;4.30;;
7432;SDS011;32233;49.500;7.764;2023-12-20T02:11:29;4.97;;;4.00;;
7432;SDS011;32233;49.500;7.764;2023-12-20T02:13:56;5.23;;;4.20;;
7432;SDS011;32233;49.500;7.764;2023-12-20T02:16:22;4.23;;;3.80;;
7432;SDS011;32233;49.500;7.764;2023-12-20T02:18:49;7.17;;;4.33;;
7432;SDS011;32233;49.500;7.764;2023-12-20T02:21:16;4.97;;;3.90;;
7432;SDS011;32233;49.500;7.764;2023-12-20T02:23:42;7.70;;;4.30;;
7432;SDS011;32233;49.500;7.764;2023-12-20T02:26:09;4.90;;;3.70;;
7432;SDS011;32233;49.500;7.764;2023-12-20T02:28:36;5.00;;;4.33;;
7432;SDS011;32233;49.500;7.764;2023-12-20T02:31:03;4.83;;;3.77;;
7432;SDS011;32233;49.500;7.764;2023-12-20T02:33:30;4.57;;;3.77;;
7432;SDS011;32233;49.500;7.764;2023-12-20T02:35:56;4.60;;;3.40;;
7432;SDS011;32233;49.500;7.764;2023-12-20T02:38:23;5.60;;;3.87;;
7432;SDS011;32233;49.500;7.764;2023-12-20T02:40:49;5.23;;;3.83;;
7432;SDS011;32233;49.500;7.764;2023-12-20T02:43:16;4.03;;;3.43;;
7432;SDS011;32233;49.500;7.764;2023-12-20T02:45:43;5.07;;;3.87;;
7432;SDS011;32233;49.500;7.764;2023-12-20T02:48:09;5.27;;;4.10;;
7432;SDS011;32233;49.500;7.764;2023-12-20T02:50:36;5.07;;;4.00;;
7432;SDS011;32233;49.500;7.764;2023-12-20T02:53:02;5.27;;;3.70;;
7432;SDS011;32233;49.500;7.764;2023-12-20T02:55:29;4.80;;;3.87;;
7432;SDS011;32233;49.500;7.764;2023-12-20T02:57:56;7.03;;;4.33;;
7432;SDS011;32233;49.500;7.764;2023-12-20T03:00:22;5.37;;;4.67;;
7432;SDS011;32233;49.500;7.764;2023-12-20T03:02:49;4.57;;;4.13;;
7432;SDS011;32233;49.500;7.764;2023-12-20T03:05:16;4.77;;;3.90;;
7432;SDS011;32233;49.500;7.764;2023-12-20T03:07:43;5.77;;;4.03;;
7432;SDS011;32233;49.500;7.764;2023-12-20T03:10:10;6.93;;;4.80;;
7432;SDS011;32233;49.500;7.764;2023-12-20T03:12:48;6.57;;;4.87;;
7432;SDS011;32233;49.500;7.764;2023-12-20T03:15:15;5.20;;;4.70;;
7432;SDS011;32233;49.500;7.764;2023-12-20T03:17:42;10.07;;;4.73;;
7432;SDS011;32233;49.500;7.764;2023-12-20T03:20:09;6.50;;;5.30;;
7432;SDS011;32233;49.500;7.764;2023-12-20T03:22:36;6.70;;;5.10;;
7432;SDS011;32233;49.500;7.764;2023-12-20T03:25:02;8.20;;;6.30;;
7432;SDS011;32233;49.500;7.764;2023-12-20T03:27:29;7.63;;;5.73;;
7432;SDS011;32233;49.500;7.764;2023-12-20T03:29:56;7.87;;;5.53;;
7432;SDS011;32233;49.500;7.764;2023-12-20T03:32:22;8.27;;;5.60;;
7432;SDS011;32233;49.500;7.764;2023-12-20T03:34:49;7.50;;;5.70;;
7432;SDS011;32233;49.500;7.764;2023-12-20T03:37:16;10.20;;;6.27;;
7432;SDS011;32233;49.500;7.764;2023-12-20T03:39:42;9.83;;;6.47;;
7432;SDS011;32233;49.500;7.764;2023-12-20T03:42:09;11.43;;;7.43;;
7432;SDS011;32233;49.500;7.764;2023-12-20T03:44:38;9.90;;;6.80;;
7432;SDS011;32233;49.500;7.764;2023-12-20T03:47:05;9.50;;;6.57;;
7432;SDS011;32233;49.500;7.764;2023-12-20T03:49:32;12.17;;;7.37;;
7432;SDS011;32233;49.500;7.764;2023-12-20T03:51:59;12.30;;;7.97;;
7432;SDS011;32233;49.500;7.764;2023-12-20T03:54:25;12.17;;;8.30;;
7432;SDS011;32233;49.500;7.764;2023-12-20T03:56:52;13.40;;;9.07;;
7432;SDS011;32233;49.500;7.764;2023-12-20T03:59:19;14.07;;;9.00;;
7432;SDS011;32233;49.500;7.764;2023-12-20T04:01:45;16.70;;;9.60;;
7432;SDS011;32233;49.500;7.764;2023-12-20T04:04:12;15.37;;;9.60;;
7432;SDS011;32233;49.500;7.764;2023-12-20T04:06:40;16.50;;;9.97;;
7432;SDS011;32233;49.500;7.764;2023-12-20T04:09:07;15.57;;;9.77;;
7432;SDS011;32233;49.500;7.764;2023-12-20T04:11:36;18.40;;;10.63;;
7432;SDS011;32233;49.500;7.764;2023-12-20T04:14:03;18.90;;;10.80;;
7432;SDS011;32233;49.500;7.764;2023-12-20T04:16:31;20.27;;;11.93;;
7432;SDS011;32233;49.500;7.764;2023-12-20T04:18:57;19.70;;;11.40;;
7432;SDS011;32233;49.500;7.764;2023-12-20T04:21:24;16.87;;;11.07;;
7432;SDS011;32233;49.500;7.764;2023-12-20T04:23:51;18.43;;;11.40;;
7432;SDS011;32233;49.500;7.764;2023-12-20T04:26:17;20.43;;;12.50;;
7432;SDS011;32233;49.500;7.764;2023-12-20T04:28:44;17.03;;;11.03;;
7432;SDS011;32233;49.500;7.764;2023-12-20T04:31:10;21.37;;;12.73;;
7432;SDS011;32233;49.500;7.764;2023-12-20T04:33:37;20.63;;;12.23;;
7432;SDS011;32233;49.500;7.764;2023-12-20T04:36:03;22.03;;;11.97;;
7432;SDS011;32233;49.500;7.764;2023-12-20T04:38:30;23.07;;;13.03;;
7432;SDS011;32233;49.500;7.764;2023-12-20T04:40:57;23.93;;;13.40;;
7432;SDS011;32233;49.500;7.764;2023-12-20T04:43:23;22.33;;;12.90;;
7432;SDS011;32233;49.500;7.764;2023-12-20T04:45:51;23.07;;;13.67;;
7432;SDS011;32233;49.500;7.764;2023-12-20T04:48:18;24.90;;;13.20;;
7432;SDS011;32233;49.500;7.764;2023-12-20T04:50:44;20.93;;;12.57;;
7432;SDS011;32233;49.500;7.764;2023-12-20T04:53:11;22.20;;;12.33;;
7432;SDS011;32233;49.500;7.764;2023-12-20T04:55:37;24.70;;;13.70;;
7432;SDS011;32233;49.500;7.764;2023-12-20T04:58:05;21.60;;;13.13;;
7432;SDS011;32233;49.500;7.764;2023-12-20T05:00:32;22.67;;;13.03;;
7432;SDS011;32233;49.500;7.764;2023-12-20T05:02:59;24.07;;;12.90;;
7432;SDS011;32233;49.500;7.764;2023-12-20T05:05:26;22.00;;;12.47;;
7432;SDS011;32233;49.500;7.764;2023-12-20T05:07:52;21.47;;;12.50;;
7432;SDS011;32233;49.500;7.764;2023-12-20T05:10:19;18.60;;;12.33;;
7432;SDS011;32233;49.500;7.764;2023-12-20T05:12:46;22.60;;;12.97;;
7432;SDS011;32233;49.500;7.764;2023-12-20T05:15:12;22.37;;;12.40;;
7432;SDS011;32233;49.500;7.764;2023-12-20T05:17:39;21.20;;;12.63;;
7432;SDS011;32233;49.500;7.764;2023-12-20T05:20:06;19.83;;;11.70;;
7432;SDS011;32233;49.500;7.764;2023-12-20T05:22:33;17.73;;;11.33;;
7432;SDS011;32233;49.500;7.764;2023-12-20T05:24:59;18.83;;;11.47;;
7432;SDS011;32233;49.500;7.764;2023-12-20T05:27:26;19.30;;;12.07;;
7432;SDS011;32233;49.500;7.764;2023-12-20T05:29:53;21.73;;;12.43;;
7432;SDS011;32233;49.500;7.764;2023-12-20T05:32:23;22.13;;;13.07;;
7432;SDS011;32233;49.500;7.764;2023-12-20T05:34:50;23.37;;;13.47;;
7432;SDS011;32233;49.500;7.764;2023-12-20T05:37:16;24.10;;;12.93;;
7432;SDS011;32233;49.500;7.764;2023-12-20T05:39:43;22.83;;;12.67;;
7432;SDS011;32233;49.500;7.764;2023-12-20T05:42:10;21.13;;;12.40;;
7432;SDS011;32233;49.500;7.764;2023-12-20T05:44:36;20.70;;;11.07;;
7432;SDS011;32233;49.500;7.764;2023-12-20T05:47:03;17.53;;;10.23;;
7432;SDS011;32233;49.500;7.764;2023-12-20T05:49:30;13.13;;;8.33;;
7432;SDS011;32233;49.500;7.764;2023-12-20T05:51:58;13.30;;;7.77;;
7432;SDS011;32233;49.500;7.764;2023-12-20T05:54:24;8.60;;;6.17;;
7432;SDS011;32233;49.500;7.764;2023-12-20T05:56:51;6.40;;;5.20;;
7432;SDS011;32233;49.500;7.764;2023-12-20T05:59:17;5.97;;;3.97;;
7432;SDS011;32233;49.500;7.764;2023-12-20T06:01:44;9.13;;;4.50;;
7432;SDS011;32233;49.500;7.764;2023-12-20T06:04:11;4.07;;;2.40;;
7432;SDS011;32233;49.500;7.764;2023-12-20T06:06:43;6.07;;;2.40;;
7432;SDS011;32233;49.500;7.764;2023-12-20T06:09:10;8.27;;;3.50;;
7432;SDS011;32233;49.500;7.764;2023-12-20T06:11:37;7.87;;;3.60;;
7432;SDS011;32233;49.500;7.764;2023-12-20T06:14:04;6.07;;;3.77;;
7432;SDS011;32233;49.500;7.764;2023-12-20T06:16:31;11.27;;;6.80;;
7432;SDS011;32233;49.500;7.764;2023-12-20T06:18:57;9.90;;;6.43;;
7432;SDS011;32233;49.500;7.764;2023-12-20T06:21:24;10.43;;;6.83;;
7432;SDS011;32233;49.500;7.764;2023-12-20T06:23:51;9.27;;;6.53;;
7432;SDS011;32233;49.500;7.764;2023-12-20T06:26:17;11.43;;;6.97;;
7432;SDS011;32233;49.500;7.764;2023-12-20T06:28:44;10.17;;;7.03;;
7432;SDS011;32233;49.500;7.764;2023-12-20T06:31:11;9.50;;;5.87;;
7432;SDS011;32233;49.500;7.764;2023-12-20T06:33:38;11.47;;;6.77;;
7432;SDS011;32233;49.500;7.764;2023-12-20T06:36:07;12.67;;;6.43;;
7432;SDS011;32233;49.500;7.764;2023-12-20T06:38:33;9.97;;;5.67;;
7432;SDS011;32233;49.500;7.764;2023-12-20T06:41:00;7.07;;;5.70;;
7432;SDS011;32233;49.500;7.764;2023-12-20T06:43:26;11.50;;;5.90;;
7432;SDS011;32233;49.500;7.764;2023-12-20T06:46:11;9.00;;;5.70;;
7432;SDS011;32233;49.500;7.764;2023-12-20T06:48:39;7.57;;;4.63;;
7432;SDS011;32233;49.500;7.764;2023-12-20T06:51:10;5.33;;;3.70;;
7432;SDS011;32233;49.500;7.764;2023-12-20T06:53:38;8.03;;;4.30;;
7432;SDS011;32233;49.500;7.764;2023-12-20T06:56:05;6.53;;;4.30;;
7432;SDS011;32233;49.500;7.764;2023-12-20T06:58:32;6.23;;;4.17;;
7432;SDS011;32233;49.500;7.764;2023-12-20T07:00:58;10.90;;;4.77;;
7432;SDS011;32233;49.500;7.764;2023-12-20T07:03:25;6.93;;;4.40;;
7432;SDS011;32233;49.500;7.764;2023-12-20T07:05:51;8.87;;;4.73;;
7432;SDS011;32233;49.500;7.764;2023-12-20T07:08:18;9.80;;;5.40;;
7432;SDS011;32233;49.500;7.764;2023-12-20T07:10:45;7.07;;;4.43;;
7432;SDS011;32233;49.500;7.764;2023-12-20T07:13:12;5.53;;;3.60;;
7432;SDS011;32233;49.500;7.764;2023-12-20T07:15:39;7.30;;;3.60;;
7432;SDS011;32233;49.500;7.764;2023-12-20T07:18:06;8.17;;;4.20;;
7432;SDS011;32233;49.500;7.764;2023-12-20T07:20:33;9.33;;;3.80;;
7432;SDS011;32233;49.500;7.764;2023-12-20T07:23:00;5.57;;;3.63;;
7432;SDS011;32233;49.500;7.764;2023-12-20T07:25:27;4.70;;;3.23;;
7432;SDS011;32233;49.500;7.764;2023-12-20T07:27:54;5.83;;;3.70;;
7432;SDS011;32233;49.500;7.764;2023-12-20T07:30:20;6.60;;;3.70;;
7432;SDS011;32233;49.500;7.764;2023-12-20T07:32:47;5.03;;;2.63;;
7432;SDS011;32233;49.500;7.764;2023-12-20T07:35:15;5.00;;;3.23;;
7432;SDS011;32233;49.500;7.764;2023-12-20T07:37:42;4.03;;;2.77;;
7432;SDS011;32233;49.500;7.764;2023-12-20T07:40:09;5.33;;;2.87;;
7432;SDS011;32233;49.500;7.764;2023-12-20T07:42:36;5.13;;;2.80;;
7432;SDS011;32233;49.500;7.764;2023-12-20T07:45:03;9.37;;;2.60;;
7432;SDS011;32233;49.500;7.764;2023-12-20T07:47:30;7.27;;;2.73;;
7432;SDS011;32233;49.500;7.764;2023-12-20T07:49:57;4.53;;;2.60;;
7432;SDS011;32233;49.500;7.764;2023-12-20T07:52:24;6.90;;;2.30;;
7432;SDS011;32233;49.500;7.764;2023-12-20T07:54:50;8.63;;;2.40;;
7432;SDS011;32233;49.500;7.764;2023-12-20T07:57:17;6.00;;;2.10;;
7432;SDS011;32233;49.500;7.764;2023-12-20T07:59:44;5.43;;;1.97;;
7432;SDS011;32233;49.500;7.764;2023-12-20T08:02:11;3.47;;;1.63;;
7432;SDS011;32233;49.500;7.764;2023-12-20T08:04:37;6.10;;;2.40;;
7432;SDS011;32233;49.500;7.764;2023-12-20T08:07:04;5.80;;;2.03;;
7432;SDS011;32233;49.500;7.764;2023-12-20T08:09:30;8.67;;;2.40;;
7432;SDS011;32233;49.500;7.764;2023-12-20T08:11:58;3.53;;;2.00;;
7432;SDS011;32233;49.500;7.764;2023-12-20T08:14:26;8.13;;;2.90;;
7432;SDS011;32233;49.500;7.764;2023-12-20T08:16:52;8.30;;;2.60;;
7432;SDS011;32233;49.500;7.764;2023-12-20T08:19:19;6.50;;;2.33;;
7432;SDS011;32233;49.500;7.764;2023-12-20T08:21:46;9.63;;;2.77;;
7432;SDS011;32233;49.500;7.764;2023-12-20T08:24:12;6.90;;;2.67;;
7432;SDS011;32233;49.500;7.764;2023-12-20T08:26:39;10.03;;;2.80;;
7432;SDS011;32233;49.500;7.764;2023-12-20T08:29:05;10.07;;;2.80;;
7432;SDS011;32233;49.500;7.764;2023-12-20T08:31:32;6.90;;;2.40;;
7432;SDS011;32233;49.500;7.764;2023-12-20T08:33:59;8.27;;;2.60;;
7432;SDS011;32233;49.500;7.764;2023-12-20T08:36:26;9.53;;;2.83;;
7432;SDS011;32233;49.500;7.764;2023-12-20T08:38:52;9.20;;;3.00;;
7432;SDS011;32233;49.500;7.764;2023-12-20T08:41:20;6.37;;;3.17;;
7432;SDS011;32233;49.500;7.764;2023-12-20T08:43:47;6.63;;;2.97;;
7432;SDS011;32233;49.500;7.764;2023-12-20T08:46:14;6.27;;;2.87;;
7432;SDS011;32233;49.500;7.764;2023-12-20T08:48:41;9.53;;;3.43;;
7432;SDS011;32233;49.500;7.764;2023-12-20T08:51:08;6.03;;;3.20;;
7432;SDS011;32233;49.500;7.764;2023-12-20T08:53:36;7.30;;;3.23;;
7432;SDS011;32233;49.500;7.764;2023-12-20T08:56:03;6.33;;;3.70;;
7432;SDS011;32233;49.500;7.764;2023-12-20T08:58:30;9.77;;;3.37;;
7432;SDS011;32233;49.500;7.764;2023-12-20T09:00:57;10.33;;;4.00;;
7432;SDS011;32233;49.500;7.764;2023-12-20T09:03:24;7.80;;;3.40;;
7432;SDS011;32233;49.500;7.764;2023-12-20T09:05:51;7.60;;;3.47;;
7432;SDS011;32233;49.500;7.764;2023-12-20T09:08:18;9.73;;;3.83;;
7432;SDS011;32233;49.500;7.764;2023-12-20T09:10:44;10.33;;;4.10;;
7432;SDS011;32233;49.500;7.764;2023-12-20T09:13:11;7.73;;;3.83;;
7432;SDS011;32233;49.500;7.764;2023-12-20T09:15:38;11.13;;;3.77;;
7432;SDS011;32233;49.500;7.764;2023-12-20T09:18:05;9.13;;;3.90;;
7432;SDS011;32233;49.500;7.764;2023-12-20T09:20:32;11.63;;;3.87;;
7432;SDS011;32233;49.500;7.764;2023-12-20T09:23:00;11.20;;;4.20;;
7432;SDS011;32233;49.500;7.764;2023-12-20T09:25:26;10.43;;;3.67;;
7432;SDS011;32233;49.500;7.764;2023-12-20T09:27:53;6.67;;;3.37;;
7432;SDS011;32233;49.500;7.764;2023-12-20T09:30:20;8.27;;;3.53;;
7432;SDS011;32233;49.500;7.764;2023-12-20T09:32:53;6.83;;;3.27;;
7432;SDS011;32233;49.500;7.764;2023-12-20T09:35:21;10.20;;;3.33;;
7432;SDS011;32233;49.500;7.764;2023-12-20T09:37:48;8.73;;;3.17;;
7432;SDS011;32233;49.500;7.764;2023-12-20T09:40:18;10.80;;;3.40;;
7432;SDS011;32233;49.500;7.764;2023-12-20T09:45:30;8.60;;;3.50;;
7432;SDS011;32233;49.500;7.764;2023-12-20T09:47:59;9.13;;;3.83;;
7432;SDS011;32233;49.500;7.764;2023-12-20T09:50:27;10.23;;;3.50;;
7432;SDS011;32233;49.500;7.764;2023-12-20T09:52:54;9.40;;;3.47;;
7432;SDS011;32233;49.500;7.764;2023-12-20T09:55:25;11.67;;;3.90;;
7432;SDS011;32233;49.500;7.764;2023-12-20T09:57:54;12.23;;;4.30;;
7432;SDS011;32233;49.500;7.764;2023-12-20T10:00:21;8.77;;;3.90;;
7432;SDS011;32233;49.500;7.764;2023-12-20T10:02:58;12.53;;;4.53;;
7432;SDS011;32233;49.500;7.764;2023-12-20T10:05:30;12.20;;;4.80;;
7432;SDS011;32233;49.500;7.764;2023-12-20T10:07:59;8.93;;;4.83;;
7432;SDS011;32233;49.500;7.764;2023-12-20T10:10:33;14.87;;;6.80;;
7432;SDS011;32233;49.500;7.764;2023-12-20T10:13:11;14.80;;;6.30;;
7432;SDS011;32233;49.500;7.764;2023-12-20T10:15:40;11.03;;;4.60;;
7432;SDS011;32233;49.500;7.764;2023-12-20T10:18:08;11.83;;;4.67;;
7432;SDS011;32233;49.500;7.764;2023-12-20T10:20:35;12.17;;;4.70;;
7432;SDS011;32233;49.500;7.764;2023-12-20T10:23:02;12.07;;;4.47;;
7432;SDS011;32233;49.500;7.764;2023-12-20T10:25:30;10.57;;;4.70;;
7432;SDS011;32233;49.500;7.764;2023-12-20T10:28:08;14.63;;;5.10;;
7432;SDS011;32233;49.500;7.764;2023-12-20T10:30:40;10.53;;;4.93;;
7432;SDS011;32233;49.500;7.764;2023-12-20T10:33:07;11.53;;;4.77;;
7432;SDS011;32233;49.500;7.764;2023-12-20T10:35:35;10.77;;;5.27;;
7432;SDS011;32233;49.500;7.764;2023-12-20T10:38:06;13.73;;;5.17;;
7432;SDS011;32233;49.500;7.764;2023-12-20T10:40:36;11.47;;;5.23;;
7432;SDS011;32233;49.500;7.764;2023-12-20T10:43:06;9.53;;;4.93;;
7432;SDS011;32233;49.500;7.764;2023-12-20T10:45:35;14.23;;;5.03;;
7432;SDS011;32233;49.500;7.764;2023-12-20T10:48:02;13.53;;;5.47;;
7432;SDS011;32233;49.500;7.764;2023-12-20T10:50:30;13.33;;;5.13;;
7432;SDS011;32233;49.500;7.764;2023-12-20T10:52:57;14.07;;;5.53;;
7432;SDS011;32233;49.500;7.764;2023-12-20T10:55:25;11.73;;;5.40;;
7432;SDS011;32233;49.500;7.764;2023-12-20T10:58:00;8.33;;;4.53;;
7432;SDS011;32233;49.500;7.764;2023-12-20T11:00:31;16.67;;;5.53;;
7432;SDS011;32233;49.500;7.764;2023-12-20T11:03:01;14.17;;;5.50;;
7432;SDS011;32233;49.500;7.764;2023-12-20T11:05:53;10.80;;;4.97;;
7432;SDS011;32233;49.500;7.764;2023-12-20T11:08:43;12.57;;;5.50;;
7432;SDS011;32233;49.500;7.764;2023-12-20T11:11:16;12.27;;;5.13;;
7432;SDS011;32233;49.500;7.764;2023-12-20T11:16:26;10.23;;;4.83;;
7432;SDS011;32233;49.500;7.764;2023-12-20T11:19:06;17.53;;;5.23;;
7432;SDS011;32233;49.500;7.764;2023-12-20T11:21:33;10.30;;;4.97;;
7432;SDS011;32233;49.500;7.764;2023-12-20T11:24:00;12.53;;;4.57;;
7432;SDS011;32233;49.500;7.764;2023-12-20T11:26:29;14.37;;;4.87;;
7432;SDS011;32233;49.500;7.764;2023-12-20T11:32:03;8.77;;;3.77;;
7432;SDS011;32233;49.500;7.764;2023-12-20T11:37:29;16.03;;;4.47;;
7432;SDS011;32233;49.500;7.764;2023-12-20T11:40:07;9.03;;;4.17;;
7432;SDS011;32233;49.500;7.764;2023-12-20T11:42:38;14.47;;;4.10;;
7432;SDS011;32233;49.500;7.764;2023-12-20T11:45:08;12.33;;;3.93;;
7432;SDS011;32233;49.500;7.764;2023-12-20T11:47:42;9.17;;;3.77;;
7432;SDS011;32233;49.500;7.764;2023-12-20T11:50:12;9.67;;;3.73;;
7432;SDS011;32233;49.500;7.764;2023-12-20T11:52:39;10.70;;;3.43;;
7432;SDS011;32233;49.500;7.764;2023-12-20T11:55:05;8.07;;;3.83;;
7432;SDS011;32233;49.500;7.764;2023-12-20T11:57:32;11.83;;;3.67;;
7432;SDS011;32233;49.500;7.764;2023-12-20T11:59:59;10.07;;;3.67;;
7432;SDS011;32233;49.500;7.764;2023-12-20T12:02:26;8.83;;;3.70;;
7432;SDS011;32233;49.500;7.764;2023-12-20T12:04:53;7.80;;;3.67;;
7432;SDS011;32233;49.500;7.764;2023-12-20T12:07:19;10.37;;;3.83;;
7432;SDS011;32233;49.500;7.764;2023-12-20T12:09:46;12.07;;;3.90;;
7432;SDS011;32233;49.500;7.764;2023-12-20T12:12:13;10.53;;;3.67;;
7432;SDS011;32233;49.500;7.764;2023-12-20T12:14:41;7.97;;;3.43;;
7432;SDS011;32233;49.500;7.764;2023-12-20T12:17:11;10.97;;;3.53;;
7432;SDS011;32233;49.500;7.764;2023-12-20T12:19:39;8.97;;;3.20;;
7432;SDS011;32233;49.500;7.764;2023-12-20T12:22:08;9.97;;;3.50;;
7432;SDS011;32233;49.500;7.764;2023-12-20T12:24:42;8.53;;;3.50;;
7432;SDS011;32233;49.500;7.764;2023-12-20T12:27:12;13.77;;;3.70;;
7432;SDS011;32233;49.500;7.764;2023-12-20T12:30:00;7.77;;;3.47;;
7432;SDS011;32233;49.500;7.764;2023-12-20T12:32:30;8.40;;;3.00;;
7432;SDS011;32233;49.500;7.764;2023-12-20T12:34:58;12.07;;;3.30;;
7432;SDS011;32233;49.500;7.764;2023-12-20T12:37:25;7.70;;;2.67;;
7432;SDS011;32233;49.500;7.764;2023-12-20T12:39:53;9.87;;;2.77;;
7432;SDS011;32233;49.500;7.764;2023-12-20T12:42:21;10.70;;;2.83;;
7432;SDS011;32233;49.500;7.764;2023-12-20T12:44:48;12.17;;;3.20;;
7432;SDS011;32233;49.500;7.764;2023-12-20T12:47:14;9.10;;;2.90;;
7432;SDS011;32233;49.500;7.764;2023-12-20T12:49:41;7.73;;;3.20;;
7432;SDS011;32233;49.500;7.764;2023-12-20T12:52:08;10.23;;;5.07;;
7432;SDS011;32233;49.500;7.764;2023-12-20T12:54:34;10.10;;;2.80;;
7432;SDS011;32233;49.500;7.764;2023-12-20T12:57:01;7.77;;;2.33;;
7432;SDS011;32233;49.500;7.764;2023-12-20T12:59:27;8.77;;;2.50;;
7432;SDS011;32233;49.500;7.764;2023-12-20T13:01:54;13.53;;;2.67;;
7432;SDS011;32233;49.500;7.764;2023-12-20T13:04:21;7.40;;;2.37;;
7432;SDS011;32233;49.500;7.764;2023-12-20T13:06:47;11.37;;;2.00;;
7432;SDS011;32233;49.500;7.764;2023-12-20T13:09:14;9.83;;;2.57;;
7432;SDS011;32233;49.500;7.764;2023-12-20T13:11:41;9.50;;;2.70;;
7432;SDS011;32233;49.500;7.764;2023-12-20T13:14:08;8.97;;;2.50;;
7432;SDS011;32233;49.500;7.764;2023-12-20T13:16:37;7.33;;;2.63;;
7432;SDS011;32233;49.500;7.764;2023-12-20T13:19:03;9.40;;;2.97;;
7432;SDS011;32233;49.500;7.764;2023-12-20T13:21:30;6.63;;;2.30;;
7432;SDS011;32233;49.500;7.764;2023-12-20T13:23:57;7.90;;;2.30;;
7432;SDS011;32233;49.500;7.764;2023-12-20T13:26:24;8.90;;;2.37;;
7432;SDS011;32233;49.500;7.764;2023-12-20T13:28:51;9.70;;;2.03;;
7432;SDS011;32233;49.500;7.764;2023-12-20T13:31:24;7.70;;;2.10;;
7432;SDS011;32233;49.500;7.764;2023-12-20T13:33:51;10.63;;;2.50;;
7432;SDS011;32233;49.500;7.764;2023-12-20T13:36:19;5.30;;;2.30;;
7432;SDS011;32233;49.500;7.764;2023-12-20T13:38:46;6.77;;;2.10;;
7432;SDS011;32233;49.500;7.764;2023-12-20T13:41:13;10.37;;;2.00;;
7432;SDS011;32233;49.500;7.764;2023-12-20T13:43:43;9.70;;;2.20;;
7432;SDS011;32233;49.500;7.764;2023-12-20T13:46:10;5.07;;;1.93;;
7432;SDS011;32233;49.500;7.764;2023-12-20T13:48:37;5.47;;;1.73;;
7432;SDS011;32233;49.500;7.764;2023-12-20T13:51:07;8.23;;;2.07;;
7432;SDS011;32233;49.500;7.764;2023-12-20T13:53:34;9.53;;;2.20;;
7432;SDS011;32233;49.500;7.764;2023-12-20T13:56:00;8.43;;;2.43;;
7432;SDS011;32233;49.500;7.764;2023-12-20T13:58:27;7.93;;;2.40;;
7432;SDS011;32233;49.500;7.764;2023-12-20T14:00:54;7.50;;;2.40;;
7432;SDS011;32233;49.500;7.764;2023-12-20T14:03:20;6.07;;;1.90;;
7432;SDS011;32233;49.500;7.764;2023-12-20T14:05:47;13.13;;;2.53;;
7432;SDS011;32233;49.500;7.764;2023-12-20T14:08:14;11.00;;;3.33;;
7432;SDS011;32233;49.500;7.764;2023-12-20T14:10:40;8.20;;;2.83;;
7432;SDS011;32233;49.500;7.764;2023-12-20T14:13:07;8.30;;;2.83;;
7432;SDS011;32233;49.500;7.764;2023-12-20T14:15:34;8.87;;;2.17;;
7432;SDS011;32233;49.500;7.764;2023-12-20T14:18:04;7.17;;;2.40;;
7432;SDS011;32233;49.500;7.764;2023-12-20T14:20:32;7.10;;;2.40;;
7432;SDS011;32233;49.500;7.764;2023-12-20T14:23:01;7.37;;;2.83;;
7432;SDS011;32233;49.500;7.764;2023-12-20T14:25:28;9.03;;;2.27;;
7432;SDS011;32233;49.500;7.764;2023-12-20T14:28:00;10.80;;;2.47;;
7432;SDS011;32233;49.500;7.764;2023-12-20T14:30:27;13.70;;;3.10;;
7432;SDS011;32233;49.500;7.764;2023-12-20T14:32:54;7.20;;;2.80;;
7432;SDS011;32233;49.500;7.764;2023-12-20T14:35:21;11.80;;;2.43;;
7432;SDS011;32233;49.500;7.764;2023-12-20T14:37:47;8.30;;;2.80;;
7432;SDS011;32233;49.500;7.764;2023-12-20T14:40:14;9.70;;;4.83;;
7432;SDS011;32233;49.500;7.764;2023-12-20T14:42:43;14.00;;;5.17;;
7432;SDS011;32233;49.500;7.764;2023-12-20T14:45:10;8.17;;;2.13;;
7432;SDS011;32233;49.500;7.764;2023-12-20T14:47:37;7.77;;;2.50;;
7432;SDS011;32233;49.500;7.764;2023-12-20T14:50:04;8.67;;;2.27;;
7432;SDS011;32233;49.500;7.764;2023-12-20T14:52:32;13.50;;;2.57;;
7432;SDS011;32233;49.500;7.764;2023-12-20T14:55:03;8.17;;;2.50;;
7432;SDS011;32233;49.500;7.764;2023-12-20T14:57:31;15.30;;;2.57;;
7432;SDS011;32233;49.500;7.764;2023-12-20T14:59:58;9.23;;;2.60;;
7432;SDS011;32233;49.500;7.764;2023-12-20T15:02:25;10.30;;;2.70;;
7432;SDS011;32233;49.500;7.764;2023-12-20T15:04:51;10.13;;;3.10;;
7432;SDS011;32233;49.500;7.764;2023-12-20T15:07:19;11.17;;;2.80;;
7432;SDS011;32233;49.500;7.764;2023-12-20T15:09:45;9.17;;;2.80;;